Time;durP1;ratioP1;P1;durP2;ratioP2;P2;SDS_P1;SDS_P2;PMS_P1;PMS_P2;Temp;Humidity;BMP_temperature;BMP_pressure;BME280_temperature;BME280_humidity;BME280_pressure;Samples;Min_cycle;Max_cycle;Signal;HPM_P1;HPM_P2
2022/12/07 00:01:19;;;;;;;1.17;1.00;;;;;;;18.61;44.25;101660.31;5045026;28;20021;-64
2022/12/07 00:03:45;;;;;;;1.95;1.13;;;;;;;18.61;44.42;101656.78;5044846;28;20029;-64
2022/12/07 00:06:14;;;;;;;1.98;1.35;;;;;;;18.60;44.13;101663.13;5044425;28;20025;-64
2022/12/07 00:08:39;;;;;;;1.70;1.30;;;;;;;18.59;44.21;101656.91;5044736;28;20033;-64
2022/12/07 00:11:10;;;;;;;1.85;1.33;;;;;;;18.58;44.48;101660.59;5044340;28;20029;-64
2022/12/07 00:13:36;;;;;;;1.67;1.27;;;;;;;18.57;44.32;101661.59;5059576;28;20060;-64
2022/12/07 00:16:15;;;;;;;1.98;1.20;;;;;;;18.57;44.44;101656.22;5044243;28;20021;-64
2022/12/07 00:18:41;;;;;;;1.20;1.00;;;;;;;18.57;44.29;101655.38;5044776;28;20083;-64
2022/12/07 00:21:13;;;;;;;1.75;1.38;;;;;;;18.55;44.21;101644.72;5043142;28;20029;-64
2022/12/07 00:23:39;;;;;;;2.53;1.10;;;;;;;18.44;44.27;101634.16;5044230;28;20025;-64
2022/12/07 00:26:06;;;;;;;1.77;1.17;;;;;;;18.53;44.41;101652.13;5044256;28;20098;-65
2022/12/07 00:28:31;;;;;;;2.67;1.45;;;;;;;18.53;44.55;101651.28;5044497;28;20128;-65
2022/12/07 00:31:04;;;;;;;2.35;0.98;;;;;;;18.51;44.34;101637.09;5044386;28;20034;-65
2022/12/07 00:33:29;;;;;;;2.35;1.27;;;;;;;18.50;44.56;101636.25;5044400;28;20437;-65
2022/12/07 00:35:56;;;;;;;1.75;1.23;;;;;;;18.51;44.08;101634.41;5044122;28;20092;-65
2022/12/07 00:38:22;;;;;;;1.30;1.10;;;;;;;18.51;44.44;101637.09;5044018;28;20057;-64
2022/12/07 00:40:57;;;;;;;1.30;1.20;;;;;;;18.46;44.05;101627.63;5044405;28;20056;-64
2022/12/07 00:43:22;;;;;;;2.92;1.23;;;;;;;18.48;44.31;101638.25;5044499;28;20036;-64
2022/12/07 00:45:48;;;;;;;2.58;1.25;;;;;;;18.46;44.24;101629.47;5042281;28;20026;-65
2022/12/07 00:48:13;;;;;;;2.75;1.38;;;;;;;18.46;44.33;101637.53;5044172;28;20042;-65
2022/12/07 00:50:38;;;;;;;1.98;1.15;;;;;;;18.44;44.35;101634.16;5044240;28;20053;-65
2022/12/07 00:53:03;;;;;;;2.13;1.08;;;;;;;18.44;44.33;101628.78;5043029;28;20064;-65
2022/12/07 00:55:33;;;;;;;1.52;1.00;;;;;;;18.43;44.40;101632.44;5043679;28;20025;-64
2022/12/07 00:57:58;;;;;;;2.28;1.10;;;;;;;18.43;44.35;101629.75;5044420;28;20027;-64
2022/12/07 01:00:23;;;;;;;2.17;1.23;;;;;;;18.42;44.46;101631.59;5044083;28;20042;-65
2022/12/07 01:02:48;;;;;;;1.52;1.17;;;;;;;18.40;44.17;101628.22;5044401;28;20426;-65
2022/12/07 01:05:14;;;;;;;1.52;1.20;;;;;;;18.39;44.36;101629.22;5043326;28;20041;-65
2022/12/07 01:07:39;;;;;;;1.67;1.10;;;;;;;18.37;44.22;101628.50;5044285;28;20083;-65
2022/12/07 01:10:05;;;;;;;2.33;1.08;;;;;;;18.37;44.44;101623.13;5042660;28;20099;-65
2022/12/07 01:12:30;;;;;;;1.05;0.90;;;;;;;18.36;44.23;101621.44;5044244;28;20025;-65
2022/12/07 01:14:56;;;;;;;1.80;1.00;;;;;;;18.34;44.23;101618.03;5043331;28;20037;-65
2022/12/07 01:17:21;;;;;;;1.20;0.90;;;;;;;18.35;44.31;101625.13;5043756;28;20038;-65
2022/12/07 01:19:46;;;;;;;2.95;1.20;;;;;;;18.33;44.32;101621.72;5044046;28;20120;-65
2022/12/07 01:22:11;;;;;;;1.90;1.10;;;;;;;18.31;44.12;101614.78;5044082;28;20037;-65
2022/12/07 01:24:37;;;;;;;2.13;1.00;;;;;;;18.32;44.17;101629.97;5043375;28;20514;-65
2022/12/07 01:27:02;;;;;;;1.45;0.90;;;;;;;18.32;44.31;101619.19;5044066;28;20040;-64
2022/12/07 01:29:27;;;;;;;2.00;1.10;;;;;;;18.30;44.26;101618.47;5043629;28;20045;-64
2022/12/07 01:31:53;;;;;;;0.95;0.80;;;;;;;18.30;44.22;101624.69;5044072;28;20042;-65
2022/12/07 01:34:18;;;;;;;1.27;1.00;;;;;;;18.30;44.55;101623.84;5043423;28;20033;-65
2022/12/07 01:36:43;;;;;;;1.27;1.02;;;;;;;18.30;44.30;101629.25;5044062;28;20039;-65
2022/12/07 01:39:09;;;;;;;1.23;1.00;;;;;;;18.29;44.49;101635.63;5043401;28;20026;-65
2022/12/07 01:41:38;;;;;;;1.42;1.08;;;;;;;18.29;44.09;101636.47;5042802;28;20216;-65
2022/12/07 01:44:26;;;;;;;1.67;0.90;;;;;;;18.27;44.36;101629.56;5043616;28;20045;-65
2022/12/07 01:47:02;;;;;;;1.60;1.00;;;;;;;18.27;44.22;101629.56;5041274;28;20068;-65
2022/12/07 01:49:32;;;;;;;1.98;1.10;;;;;;;18.27;44.35;101634.94;5034686;28;20479;-65
2022/12/07 01:52:03;;;;;;;1.65;0.93;;;;;;;18.25;44.45;101629.69;5026480;28;20069;-65
2022/12/07 01:54:29;;;;;;;1.65;0.85;;;;;;;18.24;44.43;101628.84;5026776;28;20026;-64
2022/12/07 01:56:56;;;;;;;1.60;1.00;;;;;;;18.24;44.29;101623.47;5032527;28;20075;-64
2022/12/07 01:59:24;;;;;;;1.75;1.13;;;;;;;18.24;44.09;101628.00;5044532;28;20057;-64
2022/12/07 02:01:50;;;;;;;1.67;1.13;;;;;;;18.14;44.29;101603.81;5047159;28;20073;-65
2022/12/07 02:04:15;;;;;;;1.55;0.90;;;;;;;18.22;44.03;101627.28;5060904;28;20029;-65
2022/12/07 02:06:41;;;;;;;1.73;1.00;;;;;;;18.21;44.06;101620.22;5043331;28;20029;-65
2022/12/07 02:09:07;;;;;;;1.52;1.10;;;;;;;18.20;44.37;101613.97;5045515;28;20025;-65
2022/12/07 02:11:32;;;;;;;1.13;0.82;;;;;;;18.20;44.17;101616.66;5045645;28;20052;-65
2022/12/07 02:13:58;;;;;;;1.70;1.20;;;;;;;18.19;44.14;101617.66;5042216;28;20033;-65
2022/12/07 02:16:34;;;;;;;1.38;0.88;;;;;;;18.18;44.16;101615.09;5052491;28;20037;-64
2022/12/07 02:19:21;;;;;;;1.02;0.88;;;;;;;18.18;44.14;101609.72;5036588;28;20080;-64
2022/12/07 02:21:51;;;;;;;3.10;1.70;;;;;;;18.17;44.30;101613.41;5041723;28;20030;-65
2022/12/07 02:24:32;;;;;;;1.23;0.80;;;;;;;18.15;44.15;101610.88;5042428;28;20029;-64
2022/12/07 02:27:16;;;;;;;2.35;1.00;;;;;;;18.15;44.31;101612.72;5047359;28;20032;-64
2022/12/07 02:29:54;;;;;;;1.67;0.90;;;;;;;18.13;44.35;101615.53;5045206;28;20025;-65
2022/12/07 02:32:27;;;;;;;1.60;1.15;;;;;;;18.07;44.09;101612.59;5045533;28;20112;-64
2022/12/07 02:35:00;;;;;;;1.50;1.05;;;;;;;18.12;44.33;101626.47;5045719;28;20034;-65
2022/12/07 02:38:03;;;;;;;1.58;0.90;;;;;;;18.11;44.29;101628.31;5045512;28;20063;-65
2022/12/07 02:40:36;;;;;;;1.90;0.95;;;;;;;18.03;44.07;101619.28;5046437;28;20041;-64
2022/12/07 02:43:08;;;;;;;1.08;0.98;;;;;;;18.10;44.40;101623.09;5045417;28;20104;-64
2022/12/07 02:45:35;;;;;;;1.17;1.00;;;;;;;18.09;44.37;101624.06;5045344;28;20036;-65
2022/12/07 02:48:00;;;;;;;1.50;1.05;;;;;;;18.04;44.08;101618.28;5045140;28;20049;-64
2022/12/07 02:50:27;;;;;;;1.80;1.10;;;;;;;18.07;44.03;101621.53;5044683;28;20107;-64
2022/12/07 02:52:52;;;;;;;1.67;1.00;;;;;;;18.04;44.08;101619.13;5046554;28;20025;-64
2022/12/07 02:55:21;;;;;;;1.98;1.20;;;;;;;18.07;44.07;101618.00;5045592;28;20036;-64
2022/12/07 02:57:53;;;;;;;;;;;;;;;18.07;44.06;101618.84;5046358;28;20033;-64
2022/12/07 03:00:19;;;;;;;0.80;0.80;;;;;;;18.07;44.18;101620.69;5043394;28;19920;-64
2022/12/07 03:03:04;;;;;;;1.40;0.90;;;;;;;18.01;44.25;101618.56;5045179;28;20037;-64
2022/12/07 03:06:08;;;;;;;1.10;0.85;;;;;;;18.04;44.15;101620.97;5043847;28;20076;-64
2022/12/07 03:08:47;;;;;;;1.48;1.00;;;;;;;18.04;44.11;101620.97;5042661;28;20033;-64
2022/12/07 03:11:15;;;;;;;1.65;1.05;;;;;;;18.03;44.48;101619.28;5044557;28;20087;-64
2022/12/07 03:14:18;;;;;;;1.52;1.05;;;;;;;18.02;44.31;101626.50;5045527;28;20025;-64
2022/12/07 03:17:13;;;;;;;1.13;0.88;;;;;;;18.02;44.40;101631.88;5043971;28;20018;-64
2022/12/07 03:19:38;;;;;;;1.10;0.80;;;;;;;18.02;44.24;101620.28;5042282;28;20580;-64
2022/12/07 03:22:07;;;;;;;1.95;0.90;;;;;;;17.93;43.99;101613.94;5034582;28;20030;-64
2022/12/07 03:24:37;;;;;;;1.10;0.90;;;;;;;17.96;44.33;101619.84;5040569;28;20141;-64
2022/12/07 03:27:10;;;;;;;1.88;0.80;;;;;;;18.03;44.07;101619.28;5024593;28;20026;-64
2022/12/07 03:29:48;;;;;;;1.85;1.00;;;;;;;18.02;44.04;101610.34;5041037;28;20035;-64
2022/12/07 03:32:25;;;;;;;0.75;0.70;;;;;;;17.99;44.11;101611.47;5044017;28;20100;-64
2022/12/07 03:34:55;;;;;;;1.40;0.88;;;;;;;18.03;44.05;101611.19;5043997;28;20481;-64
2022/12/07 03:37:31;;;;;;;1.20;0.80;;;;;;;18.04;44.05;101612.91;5044086;28;20097;-64
2022/12/07 03:40:16;;;;;;;0.85;0.68;;;;;;;18.04;44.16;101607.50;5044936;28;20128;-64
2022/12/07 03:42:42;;;;;;;1.13;0.90;;;;;;;18.04;44.22;101599.44;5043641;28;20025;-64
2022/12/07 03:45:07;;;;;;;2.25;0.98;;;;;;;18.03;44.01;101598.59;5044944;28;20040;-64
2022/12/07 03:47:38;;;;;;;1.08;0.82;;;;;;;18.04;43.94;101594.91;5044902;28;20061;-64
2022/12/07 03:50:25;;;;;;;1.60;1.02;;;;;;;18.04;44.22;101596.75;5043988;28;20030;-64
2022/12/07 03:52:58;;;;;;;1.35;0.90;;;;;;;18.05;44.20;101598.44;5060665;28;20033;-64
2022/12/07 03:55:29;;;;;;;0.98;0.80;;;;;;;18.04;43.95;101594.91;5060023;28;20112;-64
2022/12/07 03:57:58;;;;;;;1.05;0.90;;;;;;;18.04;43.96;101605.66;5054083;28;20083;-65
2022/12/07 04:00:23;;;;;;;1.75;1.08;;;;;;;18.04;44.03;101597.59;5037680;28;20482;-64
2022/12/07 04:02:52;;;;;;;1.25;0.90;;;;;;;18.03;44.16;101592.38;5033326;28;20041;-65
2022/12/07 04:05:17;;;;;;;0.82;0.68;;;;;;;18.05;43.95;101609.19;5042833;28;20363;-64
2022/12/07 04:07:42;;;;;;;2.05;0.90;;;;;;;18.06;43.95;101594.78;5037718;28;20048;-65
2022/12/07 04:10:08;;;;;;;1.73;0.90;;;;;;;18.02;44.18;101602.28;5032153;28;20046;-64
2022/12/07 04:12:34;;;;;;;1.00;0.85;;;;;;;18.05;44.15;101606.50;5044025;28;20018;-64
2022/12/07 04:14:59;;;;;;;1.10;0.90;;;;;;;18.01;44.04;101586.28;5032458;28;20056;-64
2022/12/07 04:17:24;;;;;;;1.77;0.95;;;;;;;18.05;44.05;101582.28;5024495;28;20112;-64
2022/12/07 04:19:50;;;;;;;1.33;1.05;;;;;;;18.06;43.71;101581.31;5024869;28;20026;-65
2022/12/07 04:22:15;;;;;;;0.98;0.90;;;;;;;18.07;43.98;101585.69;5024565;28;20254;-64
2022/12/07 04:24:40;;;;;;;0.93;0.70;;;;;;;18.03;43.91;101582.44;5024214;28;20036;-64
2022/12/07 04:27:05;;;;;;;2.03;0.90;;;;;;;18.06;43.79;101592.09;5024685;28;20064;-64
2022/12/07 04:29:31;;;;;;;1.02;0.90;;;;;;;18.05;43.82;101590.38;5040378;28;20029;-64
2022/12/07 04:31:56;;;;;;;0.80;0.80;;;;;;;18.07;43.85;101593.78;5043959;28;20042;-64
2022/12/07 04:34:21;;;;;;;1.83;0.80;;;;;;;18.06;43.88;101592.94;5044277;28;20029;-64
2022/12/07 04:36:47;;;;;;;1.63;1.00;;;;;;;18.06;43.77;101590.25;5044113;28;20510;-65
2022/12/07 04:39:28;;;;;;;1.30;0.75;;;;;;;18.04;43.84;101580.59;5044070;28;20037;-64
2022/12/07 04:41:53;;;;;;;0.85;0.85;;;;;;;18.07;43.96;101589.22;5044669;28;20032;-63
2022/12/07 04:44:20;;;;;;;1.05;0.82;;;;;;;18.08;43.66;101590.09;5043622;28;20048;-63
2022/12/07 04:46:45;;;;;;;1.23;0.90;;;;;;;18.07;43.73;101583.84;5043893;28;20084;-63
2022/12/07 04:49:12;;;;;;;1.27;1.00;;;;;;;18.06;43.59;101576.78;5044519;28;20034;-64
2022/12/07 04:51:37;;;;;;;2.00;0.90;;;;;;;18.03;43.76;101578.91;5043874;28;20033;-63
2022/12/07 04:54:03;;;;;;;1.30;0.90;;;;;;;18.08;43.72;101576.63;5043722;28;20029;-62
2022/12/07 04:56:28;;;;;;;2.40;0.90;;;;;;;18.04;43.67;101565.31;5044158;28;20112;-65
2022/12/07 04:58:54;;;;;;;0.70;0.70;;;;;;;18.08;43.50;101574.78;5044570;28;20033;-64
2022/12/07 05:01:19;;;;;;;1.20;1.08;;;;;;;18.06;43.70;101579.47;5042699;28;20033;-63
2022/12/07 05:03:45;;;;;;;1.70;1.00;;;;;;;18.03;43.71;101571.69;5043627;28;20065;-62
2022/12/07 05:06:11;;;;;;;1.77;1.17;;;;;;;18.07;43.49;101578.47;5032268;28;20030;-63
2022/12/07 05:08:36;;;;;;;0.80;0.75;;;;;;;18.08;43.58;101593.63;5023964;28;20436;-63
2022/12/07 05:11:02;;;;;;;1.38;0.80;;;;;;;18.09;43.56;101583.69;5024429;28;20037;-62
2022/12/07 05:13:28;;;;;;;1.10;0.80;;;;;;;18.06;43.46;101578.63;5022911;28;20628;-62
2022/12/07 05:15:53;;;;;;;0.85;0.70;;;;;;;18.09;43.58;101583.69;5023551;28;20042;-62
2022/12/07 05:18:18;;;;;;;1.42;0.80;;;;;;;18.08;43.36;101585.53;5030648;28;20036;-63
2022/12/07 05:20:44;;;;;;;1.20;0.90;;;;;;;18.03;43.59;101579.75;5043596;28;20093;-62
2022/12/07 05:23:10;;;;;;;1.42;0.93;;;;;;;18.10;43.34;101586.25;5031968;28;20030;-63
2022/12/07 05:25:35;;;;;;;1.23;0.90;;;;;;;18.10;43.51;101590.81;5026110;28;20045;-62
2022/12/07 05:28:01;;;;;;;0.95;0.70;;;;;;;18.09;43.40;101591.78;5033734;28;20029;-63
2022/12/07 05:30:26;;;;;;;0.70;0.70;;;;;;;18.10;43.67;101591.66;5046976;28;20037;-63
2022/12/07 05:32:51;;;;;;;1.67;0.80;;;;;;;18.11;43.51;101587.94;5048318;28;20037;-62
2022/12/07 05:35:18;;;;;;;1.30;0.70;;;;;;;18.11;43.29;101590.63;5045760;28;20030;-62
2022/12/07 05:37:43;;;;;;;1.25;0.90;;;;;;;18.13;43.44;101595.88;5046407;28;20025;-63
2022/12/07 05:40:10;;;;;;;1.38;0.80;;;;;;;18.11;43.46;101582.56;5047123;28;20098;-63
2022/12/07 05:42:35;;;;;;;1.05;0.80;;;;;;;18.04;43.42;101572.53;5047176;28;20030;-63
2022/12/07 05:45:00;;;;;;;2.95;0.80;;;;;;;18.14;43.45;101578.75;5047166;28;20080;-63
2022/12/07 05:47:25;;;;;;;1.30;0.88;;;;;;;18.14;43.90;101578.75;5046900;28;20053;-62
2022/12/07 05:49:51;;;;;;;1.65;1.08;;;;;;;18.12;43.54;101568.09;5047450;28;20473;-63
2022/12/07 05:52:16;;;;;;;1.92;0.80;;;;;;;18.12;43.78;101578.03;5043904;28;20033;-63
2022/12/07 05:54:41;;;;;;;1.58;1.17;;;;;;;18.13;43.75;101567.09;5046623;28;20036;-62
2022/12/07 05:57:07;;;;;;;1.40;0.95;;;;;;;18.15;43.63;101569.66;5047239;28;20030;-63
2022/12/07 05:59:32;;;;;;;1.38;0.75;;;;;;;18.05;43.64;101555.38;5030332;28;20107;-63
2022/12/07 06:02:04;;;;;;;1.75;0.80;;;;;;;18.15;43.87;101566.97;5027190;28;20010;-63
2022/12/07 06:04:33;;;;;;;0.93;0.65;;;;;;;18.15;44.00;101567.81;5033917;28;20292;-62
2022/12/07 06:06:58;;;;;;;;;;;;;;;18.17;43.93;101570.34;5036823;28;20089;-62
2022/12/07 06:09:25;;;;;;;2.10;0.85;;;;;;;18.16;43.89;101561.44;5053326;28;19951;-63
2022/12/07 06:14:34;;;;;;;1.40;0.80;;;;;;;18.14;43.72;101562.59;5042485;28;20040;-62
2022/12/07 06:17:00;;;;;;;1.08;0.80;;;;;;;18.17;43.97;101570.34;5041678;28;20021;-63
2022/12/07 06:19:25;;;;;;;2.78;1.02;;;;;;;18.18;44.09;101569.34;5035997;28;20029;-62
2022/12/07 06:21:51;;;;;;;1.17;0.70;;;;;;;18.16;44.15;101566.81;5035043;28;20017;-63
2022/12/07 06:24:17;;;;;;;1.80;1.00;;;;;;;18.17;44.17;101567.66;5036627;28;20036;-62
2022/12/07 06:26:43;;;;;;;1.98;0.85;;;;;;;18.11;44.13;101560.19;5029106;28;20022;-62
2022/12/07 06:29:08;;;;;;;1.20;0.80;;;;;;;18.18;44.19;101569.34;5026866;28;20037;-62
2022/12/07 06:31:35;;;;;;;2.00;0.80;;;;;;;18.19;43.99;101569.22;5026796;28;20104;-63
2022/12/07 06:34:02;;;;;;;1.58;0.70;;;;;;;18.19;44.02;101561.16;5041520;28;20061;-62
2022/12/07 06:36:28;;;;;;;2.10;0.90;;;;;;;18.13;43.98;101550.97;5044872;28;20025;-62
2022/12/07 06:38:54;;;;;;;1.38;0.73;;;;;;;18.20;43.96;101567.38;5045910;28;20064;-62
2022/12/07 06:41:19;;;;;;;2.70;0.90;;;;;;;18.15;44.09;101559.75;5046448;28;20027;-63
2022/12/07 06:43:44;;;;;;;2.08;0.93;;;;;;;18.20;44.00;101568.22;5046095;28;20029;-63
2022/12/07 06:46:09;;;;;;;1.00;0.90;;;;;;;18.21;44.21;101569.06;5045204;28;20033;-62
2022/12/07 06:48:35;;;;;;;1.10;0.80;;;;;;;18.20;44.21;101568.22;5046393;28;20053;-62
2022/12/07 06:51:00;;;;;;;0.75;0.73;;;;;;;18.21;43.99;101575.28;5045638;28;20048;-63
2022/12/07 06:53:25;;;;;;;1.15;0.80;;;;;;;18.20;44.04;101573.59;5045504;28;20064;-63
2022/12/07 06:55:51;;;;;;;1.30;0.90;;;;;;;18.22;44.07;101578.81;5045792;28;20025;-62
2022/12/07 06:58:17;;;;;;;1.80;0.70;;;;;;;18.22;44.16;101577.00;5045425;28;20478;-63
2022/12/07 07:00:43;;;;;;;1.50;1.13;;;;;;;18.22;43.92;101577.00;5045539;28;20037;-63
2022/12/07 07:03:08;;;;;;;2.03;0.95;;;;;;;18.24;44.12;101588.47;5045624;28;20037;-63
2022/12/07 07:05:33;;;;;;;1.55;0.80;;;;;;;18.26;43.82;101584.78;5045632;28;20029;-63
2022/12/07 07:07:59;;;;;;;1.40;0.93;;;;;;;18.21;43.94;101585.22;5046070;28;20029;-62
2022/12/07 07:10:24;;;;;;;1.45;0.80;;;;;;;18.24;43.93;101593.00;5044674;28;20087;-63
2022/12/07 07:12:49;;;;;;;1.15;0.70;;;;;;;18.25;43.99;101592.00;5045017;28;20089;-62
2022/12/07 07:15:15;;;;;;;1.10;0.95;;;;;;;18.24;44.13;101593.84;5045146;28;20049;-62
2022/12/07 07:17:40;;;;;;;2.30;0.98;;;;;;;18.24;44.20;101584.94;5045160;28;20025;-63
2022/12/07 07:20:06;;;;;;;1.42;0.75;;;;;;;18.26;44.05;101599.06;5045782;28;20037;-62
2022/12/07 07:22:31;;;;;;;1.10;0.70;;;;;;;18.23;43.94;101588.63;5045331;28;20086;-62
2022/12/07 07:24:56;;;;;;;2.33;1.02;;;;;;;18.27;44.01;101591.88;5059799;28;20030;-62
2022/12/07 07:27:22;;;;;;;1.75;0.80;;;;;;;18.19;44.25;101585.38;5045409;28;20029;-62
2022/12/07 07:29:47;;;;;;;1.52;0.80;;;;;;;18.24;44.16;101593.00;5045487;28;20029;-62
2022/12/07 07:32:13;;;;;;;2.50;0.85;;;;;;;18.24;43.97;101591.16;5045178;28;20026;-62
2022/12/07 07:34:38;;;;;;;1.63;0.80;;;;;;;18.24;44.09;101595.69;5045581;28;20030;-65
2022/12/07 07:37:03;;;;;;;1.70;0.60;;;;;;;18.23;44.36;101588.63;5027501;28;20119;-62
2022/12/07 07:39:28;;;;;;;1.92;1.00;;;;;;;18.23;43.91;101592.16;5044721;28;20032;-64
2022/12/07 07:41:54;;;;;;;1.23;1.10;;;;;;;18.23;44.24;101594.84;5045517;28;20096;-62
2022/12/07 07:44:19;;;;;;;1.90;0.70;;;;;;;18.24;43.96;101591.16;5044813;28;20029;-62
2022/12/07 07:46:44;;;;;;;1.63;0.90;;;;;;;18.28;43.87;101593.56;5043884;28;20046;-62
2022/12/07 07:49:10;;;;;;;2.03;1.00;;;;;;;18.28;44.14;101598.94;5045030;28;20030;-62
2022/12/07 07:51:36;;;;;;;1.67;0.80;;;;;;;18.27;44.11;101595.41;5045841;28;20033;-63
2022/12/07 07:54:01;;;;;;;3.05;1.00;;;;;;;18.29;43.97;101595.25;5051795;28;20021;-62
2022/12/07 07:56:27;;;;;;;1.35;0.80;;;;;;;18.27;44.02;101589.19;5049460;28;20029;-62
2022/12/07 07:58:52;;;;;;;1.23;0.90;;;;;;;18.30;43.80;101586.16;5045141;28;20120;-63
2022/12/07 08:01:19;;;;;;;1.30;0.90;;;;;;;18.29;43.74;101593.41;5044211;28;20040;-62
2022/12/07 08:03:45;;;;;;;1.15;0.77;;;;;;;18.30;43.79;101595.09;5025104;28;20055;-64
2022/12/07 08:06:10;;;;;;;1.83;1.08;;;;;;;18.33;44.04;101599.34;5023754;28;20036;-62
2022/12/07 08:08:35;;;;;;;1.17;0.60;;;;;;;18.34;43.98;101603.72;5024652;28;20036;-62
2022/12/07 08:11:05;;;;;;;2.40;1.35;;;;;;;18.34;43.63;101609.94;5026827;28;20402;-63
2022/12/07 08:13:30;;;;;;;;;;;;;;;18.36;43.89;101607.97;5025428;28;20037;-62
2022/12/07 08:15:55;;;;;;;1.40;1.10;;;;;;;18.37;43.70;101615.06;5023881;28;20000;-62
2022/12/07 08:18:20;;;;;;;1.83;1.08;;;;;;;18.36;43.69;101607.97;5025074;28;20036;-62
2022/12/07 08:20:45;;;;;;;1.30;0.73;;;;;;;18.37;43.72;101606.97;5024445;28;20053;-62
2022/12/07 08:23:11;;;;;;;3.10;0.70;;;;;;;18.24;43.64;101580.38;5025052;28;20056;-62
2022/12/07 08:25:37;;;;;;;1.20;0.70;;;;;;;18.37;43.71;101606.97;5024977;28;20406;-62
2022/12/07 08:28:02;;;;;;;2.15;0.70;;;;;;;18.16;43.85;101582.97;5044164;28;20029;-62
2022/12/07 08:30:28;;;;;;;0.82;0.60;;;;;;;18.38;43.76;101613.19;5044400;28;20030;-62
2022/12/07 08:32:53;;;;;;;1.55;0.70;;;;;;;18.37;43.46;101608.81;5038124;28;20033;-62
2022/12/07 08:35:19;;;;;;;2.20;0.90;;;;;;;18.38;43.60;101605.97;5043627;28;20025;-62
2022/12/07 08:37:44;;;;;;;0.80;0.70;;;;;;;18.41;43.34;101607.53;5044523;28;20021;-62
2022/12/07 08:40:14;;;;;;;0.73;0.50;;;;;;;18.38;43.36;101597.88;5043613;28;20022;-63
2022/12/07 08:42:41;;;;;;;1.30;0.85;;;;;;;18.36;43.32;101590.97;5039241;28;20030;-62
2022/12/07 08:45:09;;;;;;;1.58;0.73;;;;;;;18.46;43.06;101607.94;5049697;28;20036;-62
2022/12/07 08:47:37;;;;;;;1.20;0.80;;;;;;;18.38;43.26;101597.88;5033837;28;20044;-62
2022/12/07 08:50:04;;;;;;;0.88;0.52;;;;;;;18.45;43.36;101608.94;5059659;28;20060;-62
2022/12/07 08:52:30;;;;;;;0.93;0.65;;;;;;;18.48;43.08;101608.66;5059316;28;20082;-62
2022/12/07 08:54:55;;;;;;;1.50;0.70;;;;;;;18.49;43.26;101603.09;5043055;28;20037;-62
2022/12/07 08:57:21;;;;;;;1.40;0.70;;;;;;;18.49;42.99;101600.41;5039249;28;20036;-62
2022/12/07 08:59:46;;;;;;;1.38;0.68;;;;;;;18.48;42.91;101604.09;5046868;28;20536;-62
2022/12/07 09:02:11;;;;;;;1.70;0.60;;;;;;;18.50;42.98;101598.56;5048187;28;20021;-62
2022/12/07 09:04:37;;;;;;;0.98;0.60;;;;;;;18.51;43.19;101594.84;5048068;28;20052;-62
2022/12/07 09:07:03;;;;;;;1.30;0.70;;;;;;;18.53;43.09;101597.41;5047815;28;20029;-62
2022/12/07 09:09:29;;;;;;;1.25;0.90;;;;;;;18.55;42.76;101592.72;5047747;28;20059;-62
2022/12/07 09:11:54;;;;;;;1.15;0.60;;;;;;;18.57;42.95;101596.97;5047596;28;20042;-62
2022/12/07 09:14:19;;;;;;;0.82;0.63;;;;;;;18.58;42.86;101597.81;5040367;28;20034;-62
2022/12/07 09:16:45;;;;;;;1.65;0.63;;;;;;;18.61;42.63;101608.28;5046594;28;20434;-63
2022/12/07 09:19:10;;;;;;;1.77;0.73;;;;;;;18.60;42.82;101607.41;5048409;28;20057;-63
2022/12/07 09:21:35;;;;;;;1.40;0.70;;;;;;;18.60;42.63;101610.13;5047063;28;20550;-63
2022/12/07 09:24:00;;;;;;;1.50;0.75;;;;;;;18.60;42.80;101614.66;5046243;28;20044;-63
2022/12/07 09:26:26;;;;;;;1.45;0.70;;;;;;;18.61;42.45;101614.53;5047540;28;20021;-63
2022/12/07 09:28:51;;;;;;;0.90;0.70;;;;;;;18.57;42.58;101605.06;5038414;28;20034;-63
2022/12/07 09:31:16;;;;;;;1.33;0.73;;;;;;;18.62;42.58;101605.44;5042916;28;20037;-63
2022/12/07 09:33:42;;;;;;;0.95;0.80;;;;;;;18.63;42.75;101608.97;5047762;28;20047;-63
2022/12/07 09:36:09;;;;;;;0.82;0.80;;;;;;;18.62;42.40;101608.13;5046722;28;20036;-63
2022/12/07 09:38:35;;;;;;;1.63;0.68;;;;;;;18.62;42.43;101610.81;5047075;28;20029;-63
2022/12/07 09:41:06;;;;;;;1.20;0.63;;;;;;;18.63;42.43;101611.66;5047102;28;20363;-63
2022/12/07 09:43:31;;;;;;;1.48;0.80;;;;;;;18.65;42.88;101610.53;5047476;28;20025;-63
2022/12/07 09:45:56;;;;;;;1.27;0.70;;;;;;;18.62;42.55;101597.38;5046578;28;20027;-63
2022/12/07 09:48:33;;;;;;;1.38;0.90;;;;;;;18.59;42.66;101594.97;5046157;28;20115;-62
2022/12/07 09:51:00;;;;;;;1.38;0.80;;;;;;;18.65;42.53;101607.00;5045601;28;20049;-63
2022/12/07 09:53:30;;;;;;;1.27;0.90;;;;;;;18.66;42.44;101616.78;5047169;28;20171;-63
2022/12/07 09:55:55;;;;;;;0.77;0.70;;;;;;;18.63;42.39;101609.81;5046426;28;20021;-63
2022/12/07 09:58:28;;;;;;;1.13;0.75;;;;;;;18.65;42.47;101599.75;5044664;28;20024;-63
2022/12/07 10:00:59;;;;;;;1.60;0.70;;;;;;;18.69;42.49;101598.50;5026951;28;20040;-63
2022/12/07 10:03:27;;;;;;;1.52;0.63;;;;;;;18.73;42.48;101596.31;5026824;28;20088;-63
2022/12/07 10:05:52;;;;;;;0.80;0.63;;;;;;;18.75;42.41;101597.03;5035658;28;20060;-62
2022/12/07 10:08:18;;;;;;;2.30;0.80;;;;;;;18.75;42.41;101586.25;5047084;28;20030;-63
2022/12/07 10:10:45;;;;;;;2.72;1.00;;;;;;;18.76;42.29;101585.25;5045770;28;20029;-62
2022/12/07 10:13:13;;;;;;;1.30;0.68;;;;;;;18.77;42.32;101581.56;5046288;28;20033;-63
2022/12/07 10:15:49;;;;;;;1.00;0.60;;;;;;;18.77;42.25;101586.94;5046143;28;20029;-63
2022/12/07 10:18:38;;;;;;;0.93;0.90;;;;;;;18.77;42.45;101584.25;5046954;28;20089;-63
2022/12/07 10:21:26;;;;;;;1.23;0.82;;;;;;;18.77;42.17;101591.50;5044793;28;20021;-63
2022/12/07 10:24:10;;;;;;;1.45;0.70;;;;;;;18.77;42.25;101584.25;5046072;28;20033;-60
2022/12/07 10:26:41;;;;;;;1.60;0.80;;;;;;;18.77;42.31;101586.09;5046537;28;20090;-61
2022/12/07 10:29:29;;;;;;;1.13;0.60;;;;;;;18.75;42.08;101572.78;5044848;28;20041;-62
2022/12/07 10:32:03;;;;;;;0.88;0.60;;;;;;;18.82;41.96;101586.50;5046436;28;20091;-61
2022/12/07 10:34:34;;;;;;;1.10;0.63;;;;;;;18.80;42.07;101577.72;5046541;28;20115;-61
2022/12/07 10:37:08;;;;;;;2.05;1.25;;;;;;;18.81;41.97;101588.34;5046072;28;20032;-62
2022/12/07 10:39:46;;;;;;;0.60;0.55;;;;;;;18.80;42.00;101592.03;5045678;28;20032;-62
2022/12/07 10:42:24;;;;;;;1.00;0.90;;;;;;;18.75;42.17;101580.88;5046264;28;20083;-62
2022/12/07 10:45:06;;;;;;;1.25;0.60;;;;;;;18.72;41.88;101570.41;5045888;28;20025;-62
2022/12/07 10:47:53;;;;;;;1.08;0.80;;;;;;;18.77;41.98;101569.94;5045504;28;20077;-62
2022/12/07 10:50:46;;;;;;;1.15;0.70;;;;;;;18.75;42.22;101567.41;5044434;28;20048;-63
2022/12/07 10:53:36;;;;;;;1.05;0.77;;;;;;;18.76;42.10;101557.47;5046178;28;20029;-63
2022/12/07 10:56:21;;;;;;;1.58;0.70;;;;;;;18.77;42.15;101551.94;5044423;28;20021;-61
2022/12/07 10:58:49;;;;;;;1.08;0.50;;;;;;;18.80;42.10;101553.47;5038831;28;20097;-62
2022/12/07 11:01:24;;;;;;;0.55;0.55;;;;;;;18.82;41.86;101543.38;5025911;28;20026;-62
2022/12/07 11:04:05;;;;;;;1.33;0.52;;;;;;;18.80;42.06;101538.16;5041507;28;20030;-62
2022/12/07 11:06:36;;;;;;;1.70;0.70;;;;;;;18.78;41.82;101536.63;5055384;28;20116;-61
2022/12/07 11:09:28;;;;;;;1.48;0.70;;;;;;;18.80;41.92;101543.53;5043795;28;20033;-62
2022/12/07 11:12:03;;;;;;;0.57;0.47;;;;;;;18.80;42.17;101540.00;5044051;28;20046;-62
2022/12/07 11:14:46;;;;;;;1.13;0.75;;;;;;;18.78;41.86;101523.16;5045216;28;20112;-61
2022/12/07 11:17:16;;;;;;;1.65;0.88;;;;;;;18.74;42.14;101519.94;5044004;28;20032;-62
2022/12/07 11:20:16;;;;;;;1.35;0.65;;;;;;;18.76;42.00;101526.00;5045527;28;20052;-62
2022/12/07 11:22:53;;;;;;;1.10;0.80;;;;;;;18.77;41.99;101529.53;5037574;28;20037;-62
2022/12/07 11:25:32;;;;;;;1.30;0.70;;;;;;;18.76;42.39;101523.28;5042109;28;20056;-62
2022/12/07 11:28:19;;;;;;;3.53;0.90;;;;;;;18.79;42.31;101519.47;5045642;28;20077;-62
2022/12/07 11:30:57;;;;;;;2.03;1.30;;;;;;;18.80;42.06;101513.06;5044081;28;20095;-62
2022/12/07 11:33:31;;;;;;;1.55;0.82;;;;;;;18.81;42.24;101514.75;5044109;28;20042;-62
2022/12/07 11:36:24;;;;;;;0.88;0.65;;;;;;;18.81;42.36;101515.59;5044132;28;20044;-62
2022/12/07 11:38:54;;;;;;;0.93;0.80;;;;;;;18.80;42.47;101510.38;5043590;28;20029;-62